createdAt,value
2022-12-19T00:02:42.351Z,101837.97
2022-12-19T00:05:45.076Z,101837.06
2022-12-19T00:08:48.703Z,101835.34
2022-12-19T00:11:50.450Z,101829.25
2022-12-19T00:14:51.940Z,101824.03
2022-12-19T00:17:53.552Z,101831.00
2022-12-19T00:21:00.303Z,101832.72
2022-12-19T00:24:03.304Z,101836.22
2022-12-19T00:27:06.710Z,101826.63
2022-12-19T00:30:08.896Z,101828.38
2022-12-19T00:33:10.496Z,101827.50
2022-12-19T00:36:23.198Z,101814.41
2022-12-19T00:39:24.819Z,101826.63
2022-12-19T00:42:26.367Z,101816.19
2022-12-19T00:45:28.012Z,101817.03
2022-12-19T00:48:32.265Z,101800.47
2022-12-19T00:51:36.571Z,101798.72
2022-12-19T00:54:38.194Z,101797.88
2022-12-19T00:57:39.847Z,101783.91
2022-12-19T01:00:41.512Z,101783.91
2022-12-19T01:04:04.462Z,101774.31
2022-12-19T01:07:08.268Z,101774.31
2022-12-19T01:10:10.027Z,101769.09
2022-12-19T01:13:11.537Z,101755.16
2022-12-19T01:16:13.807Z,101772.53
2022-12-19T01:19:15.375Z,101756.00
2022-12-19T01:22:16.929Z,101742.03
2022-12-19T01:25:18.896Z,101737.72
2022-12-19T01:28:20.860Z,101747.28
2022-12-19T01:31:23.808Z,101742.91
2022-12-19T01:34:25.398Z,101740.28
2022-12-19T01:37:26.982Z,101741.19
2022-12-19T01:40:28.532Z,101728.97
2022-12-19T01:43:33.594Z,101723.75
2022-12-19T01:46:45.197Z,101712.41
2022-12-19T01:49:46.856Z,101695.88
2022-12-19T01:52:48.699Z,101698.50
2022-12-19T01:55:50.535Z,101698.50
2022-12-19T01:59:05.883Z,101683.69
2022-12-19T02:02:13.293Z,101686.31
2022-12-19T02:05:15.124Z,101673.25
2022-12-19T02:08:17.298Z,101670.63
2022-12-19T02:11:18.949Z,101681.06
2022-12-19T02:14:20.864Z,101683.66
2022-12-19T02:18:01.516Z,101675.84
2022-12-19T02:21:24.152Z,101665.34
2022-12-19T02:24:45.495Z,101672.31
2022-12-19T02:28:15.549Z,101657.50
2022-12-19T02:31:34.596Z,101674.91
2022-12-19T02:34:45.234Z,101647.91
2022-12-19T02:38:01.159Z,101651.38
2022-12-19T02:41:23.009Z,101633.03
2022-12-19T02:44:30.510Z,101626.94
2022-12-19T02:47:34.440Z,101635.66
2022-12-19T02:50:49.905Z,101624.31
2022-12-19T02:53:52.108Z,101621.66
2022-12-19T02:57:08.570Z,101621.66
2022-12-19T03:00:19.924Z,101618.13
2022-12-19T03:03:47.317Z,101619.84
2022-12-19T03:06:55.945Z,101624.19
2022-12-19T03:10:17.902Z,101618.94
2022-12-19T03:13:41.470Z,101618.03
2022-12-19T03:16:43.372Z,101610.19
2022-12-19T03:19:45.999Z,101607.56
2022-12-19T03:22:47.665Z,101608.41
2022-12-19T03:25:54.966Z,101612.75
2022-12-19T03:29:14.075Z,101606.63
2022-12-19T03:32:18.001Z,101602.25
2022-12-19T03:35:26.653Z,101587.41
2022-12-19T03:38:28.910Z,101577.81
2022-12-19T03:41:50.361Z,101576.03
2022-12-19T03:44:55.692Z,101566.44
2022-12-19T03:48:01.128Z,101566.41
2022-12-19T03:51:21.102Z,101562.88
2022-12-19T03:54:27.617Z,101566.34
2022-12-19T03:57:36.573Z,101567.16
2022-12-19T04:00:41.676Z,101561.03
2022-12-19T04:03:44.099Z,101556.66
2022-12-19T04:06:45.860Z,101550.53
2022-12-19T04:09:48.961Z,101559.19
2022-12-19T04:13:01.238Z,101544.34
2022-12-19T04:16:08.824Z,101536.50
2022-12-19T04:19:41.102Z,101528.59
2022-12-19T04:22:52.712Z,101518.09
2022-12-19T04:26:00.485Z,101502.38
2022-12-19T04:29:05.080Z,101505.00
2022-12-19T04:32:08.319Z,101497.13
2022-12-19T04:35:09.887Z,101493.63
2022-12-19T04:38:11.626Z,101491.81
2022-12-19T04:41:13.248Z,101472.63
2022-12-19T04:44:14.809Z,101467.34
2022-12-19T04:47:16.378Z,101466.44
2022-12-19T04:50:17.927Z,101459.44
2022-12-19T04:53:19.707Z,101457.69
2022-12-19T04:56:21.301Z,101452.41
2022-12-19T04:59:22.855Z,101457.63
2022-12-19T05:02:24.815Z,101451.47
2022-12-19T05:05:26.483Z,101450.53
2022-12-19T05:08:27.988Z,101452.25
2022-12-19T05:11:29.597Z,101447.81
2022-12-19T05:14:31.141Z,101433.78
2022-12-19T05:17:33.030Z,101436.34
2022-12-19T05:20:37.044Z,101422.31
2022-12-19T05:23:38.601Z,101424.88
2022-12-19T05:26:40.137Z,101425.69
2022-12-19T05:29:41.701Z,101416.09
2022-12-19T05:32:43.254Z,101414.25
2022-12-19T05:35:44.812Z,101408.97
2022-12-19T05:38:46.325Z,101401.94
2022-12-19T05:41:49.287Z,101411.50
2022-12-19T05:44:51.025Z,101410.59
2022-12-19T05:47:52.565Z,101404.91
2022-12-19T05:50:54.119Z,101403.91
2022-12-19T05:53:55.638Z,101401.22
2022-12-19T05:56:57.211Z,101403.84
2022-12-19T05:59:59.081Z,101393.38
2022-12-19T06:03:00.787Z,101397.72
2022-12-19T06:06:04.968Z,101394.22
2022-12-19T06:09:06.560Z,101399.44
2022-12-19T06:12:08.228Z,101393.31
2022-12-19T06:15:10.388Z,101389.78
2022-12-19T06:18:11.980Z,101384.50
2022-12-19T06:21:16.665Z,101379.69
2022-12-19T06:24:18.225Z,101365.03
2022-12-19T06:27:19.784Z,101360.50
2022-12-19T06:30:21.341Z,101357.97
2022-12-19T06:33:23.506Z,101355.47
2022-12-19T06:36:27.154Z,101350.28
2022-12-19T06:39:28.717Z,101347.69
2022-12-19T06:42:30.293Z,101342.50
2022-12-19T06:45:31.963Z,101349.56
2022-12-19T06:48:34.315Z,101347.84
2022-12-19T06:51:35.945Z,101350.47
2022-12-19T06:54:37.570Z,101341.78
2022-12-19T06:57:45.934Z,101348.78
2022-12-19T07:00:48.101Z,101348.78
2022-12-19T07:03:50.129Z,101337.41
2022-12-19T07:06:51.761Z,101347.06
2022-12-19T07:09:53.353Z,101347.84
2022-12-19T07:12:54.901Z,101346.06
2022-12-19T07:16:02.843Z,101350.38
2022-12-19T07:19:05.321Z,101351.25
2022-12-19T07:22:07.561Z,101358.88
2022-12-19T07:25:09.829Z,101356.19
2022-12-19T07:28:11.804Z,101349.22
2022-12-19T07:31:13.395Z,101346.59
2022-12-19T07:34:14.998Z,101345.72
2022-12-19T07:37:16.540Z,101350.16
2022-12-19T07:40:18.462Z,101344.00
2022-12-19T07:43:20.078Z,101344.81
2022-12-19T07:46:22.118Z,101347.00
2022-12-19T07:49:23.854Z,101332.94
2022-12-19T07:52:26.049Z,101337.31
2022-12-19T07:55:28.323Z,101336.44
2022-12-19T07:58:30.705Z,101336.50
2022-12-19T08:01:32.325Z,101340.91
2022-12-19T08:04:34.007Z,101338.31
2022-12-19T08:07:35.626Z,101331.25
2022-12-19T08:10:37.205Z,101330.72
2022-12-19T08:13:44.776Z,101334.13
2022-12-19T08:17:18.796Z,101321.91
2022-12-19T08:20:13.675Z,101321.97
2022-12-19T08:23:15.256Z,101322.91
2022-12-19T08:26:24.913Z,101329.91
2022-12-19T08:29:27.104Z,101331.66
2022-12-19T08:32:28.630Z,101335.63
2022-12-19T08:35:30.232Z,101334.69
2022-12-19T08:38:32.000Z,101326.81
2022-12-19T08:41:33.859Z,101333.81
2022-12-19T08:44:35.465Z,101326.88
2022-12-19T08:47:37.044Z,101319.03
2022-12-19T08:50:38.560Z,101312.97
2022-12-19T08:53:41.872Z,101318.28
2022-12-19T08:56:46.720Z,101317.41
2022-12-19T08:59:48.535Z,101312.16
2022-12-19T09:02:51.704Z,101317.41
2022-12-19T09:06:08.214Z,101312.16
2022-12-19T09:09:11.994Z,101311.22
2022-12-19T09:12:15.097Z,101307.72
2022-12-19T09:15:16.641Z,101305.03
2022-12-19T09:18:18.184Z,101298.91
2022-12-19T09:21:23.845Z,101290.97
2022-12-19T09:24:25.668Z,101294.41
2022-12-19T09:27:27.272Z,101300.53
2022-12-19T09:30:29.073Z,101298.72
2022-12-19T09:33:35.535Z,101307.38
2022-12-19T09:36:41.103Z,101307.34
2022-12-19T09:39:42.629Z,101303.75
2022-12-19T09:42:50.154Z,101294.06
2022-12-19T09:45:54.848Z,101288.69
2022-12-19T09:48:57.902Z,101291.22
2022-12-19T09:52:06.138Z,101292.91
2022-12-19T09:55:28.359Z,101283.16
2022-12-19T09:58:43.271Z,101288.34
2022-12-19T10:01:58.110Z,101283.03
2022-12-19T10:06:09.235Z,101275.03
2022-12-19T10:09:03.095Z,101269.69
2022-12-19T10:12:45.226Z,101283.59
2022-12-19T10:16:39.810Z,101279.06
2022-12-19T10:20:09.760Z,101277.22
2022-12-19T10:23:17.049Z,101275.38
2022-12-19T10:26:23.483Z,101277.03
2022-12-19T10:30:01.306Z,101272.50
2022-12-19T10:33:31.871Z,101262.78
2022-12-19T10:40:32.428Z,101268.66
2022-12-19T10:43:59.213Z,101263.25
2022-12-19T10:47:00.818Z,101268.38
2022-12-19T10:50:09.665Z,101253.34
2022-12-19T10:53:13.266Z,101252.34
2022-12-19T10:56:34.990Z,101255.72
2022-12-19T10:59:38.935Z,101252.06
2022-12-19T11:02:47.672Z,101250.22
2022-12-19T11:05:58.499Z,101243.91
2022-12-19T11:09:44.581Z,101236.78
2022-12-19T11:16:40.549Z,101244.53
2022-12-19T11:22:30.457Z,101251.44
2022-12-19T11:28:45.059Z,101245.16
2022-12-19T11:29:54.357Z,101232.56
2022-12-19T11:30:34.379Z,101238.00
2022-12-19T11:33:46.006Z,101230.56
2022-12-19T11:37:09.791Z,101231.31
2022-12-19T11:40:15.876Z,101228.56
2022-12-19T11:43:45.387Z,101224.00
2022-12-19T11:47:09.710Z,101217.63
2022-12-19T11:50:21.786Z,101221.81
2022-12-19T11:54:02.411Z,101217.31
2022-12-19T11:57:04.091Z,101213.56
2022-12-19T12:00:06.420Z,101209.00
2022-12-19T12:03:13.707Z,101200.91
2022-12-19T12:06:19.024Z,101204.25
2022-12-19T12:14:12.363Z,101209.19
2022-12-19T12:16:37.162Z,101204.53
2022-12-19T12:31:14.155Z,101198.91
2022-12-19T12:31:26.956Z,101199.97
2022-12-19T12:31:42.236Z,101190.78
2022-12-19T12:31:53.908Z,101190.66
2022-12-19T12:36:54.506Z,101184.97
2022-12-19T12:38:47.437Z,101178.63
2022-12-19T12:42:37.184Z,101183.69
2022-12-19T12:45:41.000Z,101191.41
2022-12-19T12:48:45.507Z,101178.06
2022-12-19T12:51:47.469Z,101181.44
2022-12-19T12:54:50.431Z,101188.22
2022-12-19T12:57:52.254Z,101177.53
2022-12-19T13:01:17.600Z,101176.47
2022-12-19T13:04:27.494Z,101172.84
2022-12-19T13:07:40.535Z,101174.44
2022-12-19T13:10:53.942Z,101169.88
2022-12-19T13:13:58.168Z,101173.28
2022-12-19T13:17:00.741Z,101165.25
2022-12-19T13:20:05.029Z,101170.34
2022-12-19T13:23:20.901Z,101170.22
2022-12-19T13:26:46.731Z,101168.31
2022-12-19T13:30:03.874Z,101166.41
2022-12-19T13:33:07.653Z,101165.50
2022-12-19T13:39:52.444Z,101160.06
2022-12-19T13:40:34.264Z,101166.25
2022-12-19T13:43:47.657Z,101158.03
2022-12-19T13:46:49.882Z,101144.78
2022-12-19T13:49:52.384Z,101146.94
2022-12-19T13:52:54.196Z,101157.50
2022-12-19T13:56:11.639Z,101161.88
2022-12-19T13:59:13.511Z,101162.16
2022-12-19T14:02:22.648Z,101151.16
2022-12-19T14:06:16.875Z,101162.41
2022-12-19T14:11:26.284Z,101160.44
2022-12-19T14:13:59.066Z,101157.38
2022-12-19T14:16:39.824Z,101154.31
2022-12-19T14:19:53.158Z,101161.69
2022-12-19T14:23:09.553Z,101166.41
2022-12-19T14:28:24.084Z,101161.25
2022-12-19T14:30:27.605Z,101164.06
2022-12-19T14:33:54.194Z,101162.44
2022-12-19T14:36:52.184Z,101157.28
2022-12-19T14:39:59.181Z,101151.16
2022-12-19T14:43:56.815Z,101147.66
2022-12-19T14:54:08.206Z,101148.66
2022-12-19T14:54:25.678Z,101155.78
2022-12-19T14:56:03.759Z,101153.16
2022-12-19T14:58:50.955Z,101161.88
2022-12-19T15:01:22.945Z,101151.28
2022-12-19T15:04:51.788Z,101150.34
2022-12-19T15:07:55.611Z,101137.13
2022-12-19T15:11:44.536Z,101132.81
2022-12-19T15:14:58.994Z,101143.41
2022-12-19T15:18:04.382Z,101142.41
2022-12-19T15:21:09.908Z,101138.06
2022-12-19T15:24:11.446Z,101129.25
2022-12-19T15:27:15.698Z,101134.53
2022-12-19T15:30:20.485Z,101130.13
2022-12-19T15:33:22.289Z,101129.19
2022-12-19T15:36:24.047Z,101122.09
2022-12-19T15:39:29.411Z,101112.41
2022-12-19T15:42:31.420Z,101114.09
2022-12-19T15:45:33.475Z,101115.81
2022-12-19T15:48:39.402Z,101098.09
2022-12-19T15:51:41.301Z,101101.50
2022-12-19T15:54:51.120Z,101093.44
2022-12-19T15:57:59.717Z,101106.56
2022-12-19T16:01:03.762Z,101096.78
2022-12-19T16:04:13.255Z,101096.72
2022-12-19T16:07:23.487Z,101094.00
2022-12-19T16:10:26.023Z,101085.97
2022-12-19T16:13:32.271Z,101091.13
2022-12-19T16:16:34.466Z,101083.16
2022-12-19T16:19:36.064Z,101079.63
2022-12-19T16:22:38.848Z,101095.38
2022-12-19T16:25:43.607Z,101104.16
2022-12-19T16:28:45.163Z,101100.59
2022-12-19T16:31:46.777Z,101096.16
2022-12-19T16:34:48.445Z,101098.72
2022-12-19T16:37:50.363Z,101093.34
2022-12-19T16:40:52.759Z,101089.78
2022-12-19T16:43:54.532Z,101086.22
2022-12-19T16:46:56.105Z,101085.25
2022-12-19T16:49:57.677Z,101087.88
2022-12-19T16:52:59.245Z,101099.16
2022-12-19T16:56:01.410Z,101100.88
2022-12-19T16:59:08.492Z,101107.88
2022-12-19T17:02:58.644Z,101106.88
2022-12-19T17:06:01.085Z,101118.41
2022-12-19T17:09:02.693Z,101115.75
2022-12-19T17:12:04.434Z,101120.91
2022-12-19T17:15:17.990Z,101111.16
2022-12-19T17:18:29.323Z,101120.91
2022-12-19T17:21:30.890Z,101119.03
2022-12-19T17:24:32.447Z,101114.53
2022-12-19T17:27:33.996Z,101111.88
2022-12-19T17:30:36.509Z,101100.28
2022-12-19T17:33:40.462Z,101098.50
2022-12-19T17:36:42.297Z,101099.38
2022-12-19T17:39:43.868Z,101086.13
2022-12-19T17:42:45.924Z,101093.13
2022-12-19T17:45:47.636Z,101084.31
2022-12-19T17:48:52.158Z,101092.25
2022-12-19T17:51:54.496Z,101083.41
2022-12-19T17:54:56.018Z,101089.47
2022-12-19T17:57:58.146Z,101084.69
2022-12-19T18:00:59.732Z,101079.31
2022-12-19T18:04:01.630Z,101083.69
2022-12-19T18:07:03.481Z,101077.53
2022-12-19T18:10:14.364Z,101090.75
2022-12-19T18:13:16.172Z,101096.06
2022-12-19T18:16:26.519Z,101106.72
2022-12-19T18:19:31.589Z,101105.00
2022-12-19T18:22:33.179Z,101095.31
2022-12-19T18:25:35.847Z,101105.88
2022-12-19T18:28:38.577Z,101099.72
2022-12-19T18:31:46.425Z,101110.28
2022-12-19T18:34:51.640Z,101108.50
2022-12-19T18:37:53.217Z,101102.28
2022-12-19T18:40:54.747Z,101101.34
2022-12-19T18:43:56.372Z,101092.50
2022-12-19T18:46:58.955Z,101091.63
2022-12-19T18:50:00.560Z,101095.97
2022-12-19T18:53:02.117Z,101090.66
2022-12-19T18:56:06.000Z,101090.53
2022-12-19T18:59:07.609Z,101095.81
2022-12-19T19:02:26.789Z,101081.72
2022-12-19T19:05:34.258Z,101098.41
2022-12-19T19:08:35.906Z,101089.66
2022-12-19T19:11:37.392Z,101093.94
2022-12-19T19:14:39.395Z,101086.88
2022-12-19T19:17:42.288Z,101094.81
2022-12-19T19:20:45.891Z,101093.91
2022-12-19T19:23:52.517Z,101093.94
2022-12-19T19:26:54.087Z,101094.81
2022-12-19T19:29:55.610Z,101089.63
2022-12-19T19:33:02.072Z,101097.63
2022-12-19T19:36:12.325Z,101100.25
2022-12-19T19:39:14.386Z,101094.97
2022-12-19T19:42:16.255Z,101081.81
2022-12-19T19:45:17.854Z,101086.19
2022-12-19T19:48:19.430Z,101082.72
2022-12-19T19:51:21.272Z,101081.91
2022-12-19T19:54:22.874Z,101079.25
2022-12-19T19:57:24.659Z,101081.91
2022-12-19T20:00:26.218Z,101087.19
2022-12-19T20:03:27.904Z,101091.63
2022-12-19T20:06:29.773Z,101087.09
2022-12-19T20:09:31.543Z,101092.41
2022-12-19T20:12:33.647Z,101091.47
2022-12-19T20:15:35.206Z,101094.13
2022-12-19T20:18:40.077Z,101094.97
2022-12-19T20:21:42.761Z,101103.78
2022-12-19T20:24:44.345Z,101104.72
2022-12-19T20:27:46.143Z,101092.31
2022-12-19T20:30:47.754Z,101098.56
2022-12-19T20:33:50.602Z,101109.16
2022-12-19T20:36:52.319Z,101110.06
2022-12-19T20:39:53.866Z,101113.72
2022-12-19T20:42:55.408Z,101104.13
2022-12-19T20:46:08.654Z,101091.84
2022-12-19T20:49:11.624Z,101093.63
2022-12-19T20:52:13.170Z,101098.16
2022-12-19T20:55:14.850Z,101101.63
2022-12-19T20:58:16.435Z,101101.63
2022-12-19T21:01:20.863Z,101100.03
2022-12-19T21:04:22.775Z,101096.50
2022-12-19T21:07:24.547Z,101111.59
2022-12-19T21:10:26.136Z,101114.25
2022-12-19T21:13:28.324Z,101118.69
2022-12-19T21:16:30.128Z,101125.75
2022-12-19T21:19:31.770Z,101118.59
2022-12-19T21:22:33.399Z,101123.91
2022-12-19T21:25:34.919Z,101116.72
2022-12-19T21:28:37.769Z,101108.75
2022-12-19T21:31:39.480Z,101101.56
2022-12-19T21:34:41.047Z,101105.00
2022-12-19T21:37:44.199Z,101108.44
2022-12-19T21:40:45.811Z,101108.38
2022-12-19T21:43:49.246Z,101111.84
2022-12-19T21:46:50.925Z,101123.31
2022-12-19T21:49:52.536Z,101124.09
2022-12-19T21:52:55.950Z,101119.59
2022-12-19T21:56:07.237Z,101124.81
2022-12-19T21:59:14.450Z,101121.03
2022-12-19T22:02:16.386Z,101115.50
2022-12-19T22:05:18.155Z,101117.28
2022-12-19T22:08:19.701Z,101113.84
2022-12-19T22:11:21.733Z,101109.56
2022-12-19T22:14:23.508Z,101122.03
2022-12-19T22:17:26.986Z,101124.59
2022-12-19T22:20:28.511Z,101119.28
2022-12-19T22:23:30.476Z,101104.25
2022-12-19T22:26:32.913Z,101101.63
2022-12-19T22:29:36.663Z,101092.81
2022-12-19T22:32:38.353Z,101094.53
2022-12-19T22:35:40.447Z,101097.09
2022-12-19T22:38:46.591Z,101083.84
2022-12-19T22:41:48.624Z,101082.94
2022-12-19T22:44:50.169Z,101092.66
2022-12-19T22:47:51.795Z,101088.28
2022-12-19T22:50:53.339Z,101091.81
2022-12-19T22:53:55.957Z,101104.13
2022-12-19T22:56:57.491Z,101106.63
2022-12-19T22:59:59.025Z,101093.31
2022-12-19T23:03:01.279Z,101095.81
2022-12-19T23:06:03.064Z,101088.56
2022-12-19T23:09:07.456Z,101091.16
2022-12-19T23:12:09.046Z,101090.97
2022-12-19T23:15:10.832Z,101080.31
2022-12-19T23:18:12.634Z,101100.50
2022-12-19T23:21:22.871Z,101080.06
2022-12-19T23:24:24.529Z,101087.88
2022-12-19T23:27:27.859Z,101090.44
2022-12-19T23:30:29.379Z,101079.78
2022-12-19T23:33:32.817Z,101082.44
2022-12-19T23:39:55.951Z,101090.16
2022-12-19T23:42:57.502Z,101078.59
2022-12-19T23:45:59.211Z,101094.44
2022-12-19T23:49:00.836Z,101078.53
2022-12-19T23:52:02.460Z,101078.41
2022-12-19T23:55:04.401Z,101078.41
2022-12-19T23:58:13.669Z,101081.81
